createdAt,value
2023-02-02T00:00:07.562Z,50.902378
2023-02-02T00:01:07.551Z,50.902378
2023-02-02T00:02:08.512Z,50.902382
2023-02-02T00:03:07.620Z,50.902409
2023-02-02T00:04:07.517Z,50.902412
2023-02-02T00:05:07.503Z,50.902367
2023-02-02T00:06:07.506Z,50.902370
2023-02-02T00:07:07.517Z,50.902386
2023-02-02T00:08:07.480Z,50.902397
2023-02-02T00:09:07.463Z,50.902397
2023-02-02T00:10:07.460Z,50.902420
2023-02-02T00:11:07.488Z,50.902412
2023-02-02T00:12:07.445Z,50.902405
2023-02-02T00:13:07.445Z,50.902424
2023-02-02T00:14:07.438Z,50.902424
2023-02-02T00:15:07.423Z,50.902416
2023-02-02T00:16:07.478Z,50.902431
2023-02-02T00:17:07.400Z,50.902428
2023-02-02T00:18:07.393Z,50.902393
2023-02-02T00:19:07.397Z,50.902428
2023-02-02T00:20:07.373Z,50.902382
2023-02-02T00:21:07.409Z,50.902367
2023-02-02T00:22:07.407Z,50.902355
2023-02-02T00:23:07.353Z,50.902336
2023-02-02T00:24:07.358Z,50.902351
2023-02-02T00:25:07.345Z,50.902359
2023-02-02T00:26:07.357Z,50.902390
2023-02-02T00:27:07.344Z,50.902393
2023-02-02T00:28:07.317Z,50.902355
2023-02-02T00:29:08.325Z,50.902359
2023-02-02T00:30:07.331Z,50.902321
2023-02-02T00:31:07.387Z,50.902355
2023-02-02T00:32:07.287Z,50.902431
2023-02-02T00:33:07.296Z,50.902401
2023-02-02T00:34:07.270Z,50.902401
2023-02-02T00:35:07.273Z,50.902382
2023-02-02T00:36:07.304Z,50.902401
2023-02-02T00:37:07.259Z,50.902367
2023-02-02T00:38:07.259Z,50.902397
2023-02-02T00:39:07.249Z,50.902355
2023-02-02T00:40:07.250Z,50.902370
2023-02-02T00:41:07.273Z,50.902390
2023-02-02T00:42:07.216Z,50.902386
2023-02-02T00:43:07.208Z,50.902328
2023-02-02T00:44:07.205Z,50.902397
2023-02-02T00:45:07.205Z,50.902424
2023-02-02T00:46:07.255Z,50.902348
2023-02-02T00:47:07.188Z,50.902344
2023-02-02T00:48:07.177Z,50.902386
2023-02-02T00:49:07.171Z,50.902393
2023-02-02T00:50:07.171Z,50.902390
2023-02-02T00:51:07.190Z,50.902393
2023-02-02T00:52:07.157Z,50.902348
2023-02-02T00:53:07.140Z,50.902264
2023-02-02T00:54:07.134Z,50.902271
2023-02-02T00:55:07.124Z,50.902267
2023-02-02T00:56:07.151Z,50.902245
2023-02-02T00:57:07.125Z,50.902390
2023-02-02T00:58:07.118Z,50.902355
2023-02-02T00:59:07.117Z,50.902344
2023-02-02T01:00:07.100Z,50.902328
2023-02-02T01:01:07.110Z,50.902367
2023-02-02T01:02:07.137Z,50.902370
2023-02-02T01:03:07.104Z,50.902359
2023-02-02T01:04:07.069Z,50.902344
2023-02-02T01:05:07.062Z,50.902393
2023-02-02T01:06:07.075Z,50.902386
2023-02-02T01:07:07.030Z,50.902359
2023-02-02T01:08:07.032Z,50.902351
2023-02-02T01:09:07.019Z,50.902367
2023-02-02T01:10:07.132Z,50.902359
2023-02-02T01:11:07.034Z,50.902344
2023-02-02T01:12:06.996Z,50.902328
2023-02-02T01:13:06.990Z,50.902374
2023-02-02T01:14:06.987Z,50.902374
2023-02-02T01:15:06.987Z,50.902370
2023-02-02T01:16:07.036Z,50.902382
2023-02-02T01:17:06.948Z,50.902412
2023-02-02T01:18:06.958Z,50.902409
2023-02-02T01:19:06.962Z,50.902351
2023-02-02T01:20:06.926Z,50.902412
2023-02-02T01:21:06.959Z,50.902348
2023-02-02T01:22:06.911Z,50.902344
2023-02-02T01:23:06.909Z,50.902367
2023-02-02T01:24:06.914Z,50.902340
2023-02-02T01:25:06.902Z,50.902336
2023-02-02T01:26:06.970Z,50.902344
2023-02-02T01:27:06.884Z,50.902351
2023-02-02T01:28:06.896Z,50.902340
2023-02-02T01:29:06.898Z,50.902355
2023-02-02T01:30:06.855Z,50.902382
2023-02-02T01:31:06.925Z,50.902367
2023-02-02T01:32:06.859Z,50.902363
2023-02-02T01:33:06.827Z,50.902378
2023-02-02T01:34:06.835Z,50.902370
2023-02-02T01:35:06.886Z,50.902382
2023-02-02T01:36:06.801Z,50.902374
2023-02-02T01:37:06.821Z,50.902367
2023-02-02T01:38:06.800Z,50.902374
2023-02-02T01:39:06.790Z,50.902374
2023-02-02T01:40:06.775Z,50.902374
2023-02-02T01:41:06.790Z,50.902367
2023-02-02T01:42:06.798Z,50.902370
2023-02-02T01:43:06.745Z,50.902363
2023-02-02T01:44:06.746Z,50.902359
2023-02-02T01:45:06.747Z,50.902378
2023-02-02T01:46:06.769Z,50.902401
2023-02-02T01:47:06.776Z,50.902390
2023-02-02T01:48:06.700Z,50.902374
2023-02-02T01:49:07.713Z,50.902397
2023-02-02T01:50:06.698Z,50.902386
2023-02-02T01:51:06.689Z,50.902355
2023-02-02T01:52:06.717Z,50.902363
2023-02-02T01:53:06.690Z,50.902351
2023-02-02T01:54:06.683Z,50.902405
2023-02-02T01:55:06.655Z,50.902386
2023-02-02T01:56:06.657Z,50.902370
2023-02-02T01:57:06.678Z,50.902344
2023-02-02T01:58:06.653Z,50.902367
2023-02-02T01:59:06.649Z,50.902386
2023-02-02T02:00:06.615Z,50.902363
2023-02-02T02:01:06.646Z,50.902363
2023-02-02T02:02:06.721Z,50.902348
2023-02-02T02:03:06.589Z,50.902367
2023-02-02T02:04:06.599Z,50.902382
2023-02-02T02:05:06.592Z,50.902370
2023-02-02T02:06:06.649Z,50.902378
2023-02-02T02:07:06.597Z,50.902374
2023-02-02T02:08:06.707Z,50.902382
2023-02-02T02:09:06.559Z,50.902397
2023-02-02T02:10:06.573Z,50.902351
2023-02-02T02:11:06.544Z,50.902355
2023-02-02T02:12:06.570Z,50.902328
2023-02-02T02:13:06.539Z,50.902344
2023-02-02T02:14:06.527Z,50.902378
2023-02-02T02:15:06.532Z,50.902367
2023-02-02T02:16:06.546Z,50.902359
2023-02-02T02:17:06.535Z,50.902454
2023-02-02T02:18:06.492Z,50.902550
2023-02-02T02:19:06.493Z,50.902721
2023-02-02T02:20:06.511Z,50.902794
2023-02-02T02:21:06.487Z,50.902695
2023-02-02T02:22:06.512Z,50.902622
2023-02-02T02:23:06.458Z,50.902775
2023-02-02T02:24:06.455Z,50.902866
2023-02-02T02:25:06.444Z,50.902729
2023-02-02T02:26:06.436Z,50.902882
2023-02-02T02:27:06.473Z,50.902836
2023-02-02T02:28:06.420Z,50.902813
2023-02-02T02:29:06.434Z,50.902634
2023-02-02T02:30:06.441Z,50.902431
2023-02-02T02:31:06.517Z,50.902405
2023-02-02T02:32:06.401Z,50.902443
2023-02-02T02:33:06.436Z,50.902447
2023-02-02T02:34:06.373Z,50.902523
2023-02-02T02:35:06.399Z,50.902470
2023-02-02T02:36:06.391Z,50.902481
2023-02-02T02:37:06.354Z,50.902512
2023-02-02T02:38:06.363Z,50.902462
2023-02-02T02:39:06.356Z,50.902489
2023-02-02T02:40:06.338Z,50.902431
2023-02-02T02:41:06.341Z,50.902454
2023-02-02T02:42:06.342Z,50.902462
2023-02-02T02:43:06.335Z,50.902473
2023-02-02T02:44:06.329Z,50.902496
2023-02-02T02:45:06.292Z,50.902493
2023-02-02T02:46:06.344Z,50.902443
2023-02-02T02:47:06.281Z,50.902451
2023-02-02T02:48:06.299Z,50.902451
2023-02-02T02:49:06.274Z,50.902405
2023-02-02T02:50:06.270Z,50.902409
2023-02-02T02:51:06.268Z,50.902397
2023-02-02T02:52:06.235Z,50.902416
2023-02-02T02:53:06.275Z,50.902424
2023-02-02T02:54:06.244Z,50.902443
2023-02-02T02:55:06.219Z,50.902451
2023-02-02T02:56:06.214Z,50.902439
2023-02-02T02:57:06.200Z,50.902416
2023-02-02T02:58:06.224Z,50.902451
2023-02-02T02:59:06.177Z,50.902397
2023-02-02T03:00:06.181Z,50.902390
2023-02-02T03:01:06.169Z,50.902390
2023-02-02T03:02:06.141Z,50.902359
2023-02-02T03:03:07.213Z,50.902416
2023-02-02T03:04:06.138Z,50.902458
2023-02-02T03:05:06.129Z,50.902386
2023-02-02T03:06:06.123Z,50.902397
2023-02-02T03:07:06.116Z,50.902424
2023-02-02T03:08:06.130Z,50.902409
2023-02-02T03:09:06.106Z,50.902393
2023-02-02T03:10:06.100Z,50.902466
2023-02-02T03:11:06.099Z,50.902409
2023-02-02T03:12:06.090Z,50.902363
2023-02-02T03:13:06.118Z,50.902428
2023-02-02T03:14:06.087Z,50.902454
2023-02-02T03:15:06.095Z,50.902431
2023-02-02T03:16:06.106Z,50.902340
2023-02-02T03:17:06.054Z,50.902439
2023-02-02T03:18:06.072Z,50.902420
2023-02-02T03:19:06.064Z,50.902374
2023-02-02T03:20:06.023Z,50.902298
2023-02-02T03:21:06.053Z,50.902187
2023-02-02T03:22:06.013Z,50.902294
2023-02-02T03:23:06.030Z,50.902340
2023-02-02T03:24:06.016Z,50.902340
2023-02-02T03:25:05.987Z,50.902313
2023-02-02T03:26:06.041Z,50.902321
2023-02-02T03:27:05.975Z,50.902332
2023-02-02T03:28:06.042Z,50.902344
2023-02-02T03:29:05.980Z,50.902317
2023-02-02T03:30:05.954Z,50.902378
2023-02-02T03:31:06.006Z,50.902367
2023-02-02T03:32:05.921Z,50.902412
2023-02-02T03:33:05.943Z,50.902382
2023-02-02T03:34:05.914Z,50.902428
2023-02-02T03:35:05.907Z,50.902374
2023-02-02T03:36:05.895Z,50.902374
2023-02-02T03:37:05.894Z,50.902405
2023-02-02T03:38:05.913Z,50.902382
2023-02-02T03:39:05.891Z,50.902374
2023-02-02T03:40:05.894Z,50.902409
2023-02-02T03:41:05.854Z,50.902390
2023-02-02T03:42:05.873Z,50.902374
2023-02-02T03:43:05.867Z,50.902374
2023-02-02T03:44:05.844Z,50.902370
2023-02-02T03:45:05.828Z,50.902359
2023-02-02T03:46:05.861Z,50.902348
2023-02-02T03:47:05.813Z,50.902374
2023-02-02T03:48:05.933Z,50.902367
2023-02-02T03:49:05.804Z,50.902405
2023-02-02T03:50:05.793Z,50.902412
2023-02-02T03:51:05.787Z,50.902409
2023-02-02T03:52:05.784Z,50.902412
2023-02-02T03:53:05.803Z,50.902374
2023-02-02T03:54:05.843Z,50.902405
2023-02-02T03:55:05.754Z,50.902405
2023-02-02T03:56:05.745Z,50.902390
2023-02-02T03:57:05.769Z,50.902424
2023-02-02T03:58:05.764Z,50.902386
2023-02-02T03:59:05.730Z,50.902390
2023-02-02T04:00:05.718Z,50.902409
2023-02-02T04:01:05.730Z,50.902428
2023-02-02T04:02:05.731Z,50.902424
2023-02-02T04:03:05.794Z,50.902412
2023-02-02T04:04:05.690Z,50.902390
2023-02-02T04:05:05.707Z,50.902390
2023-02-02T04:06:05.684Z,50.902382
2023-02-02T04:07:05.675Z,50.902409
2023-02-02T04:08:05.715Z,50.902412
2023-02-02T04:09:05.666Z,50.902401
2023-02-02T04:10:05.647Z,50.902412
2023-02-02T04:11:05.660Z,50.902431
2023-02-02T04:12:05.631Z,50.902443
2023-02-02T04:13:05.697Z,50.902420
2023-02-02T04:14:05.629Z,50.902454
2023-02-02T04:15:05.621Z,50.902435
2023-02-02T04:16:05.651Z,50.902424
2023-02-02T04:17:05.593Z,50.902431
2023-02-02T04:18:05.597Z,50.902416
2023-02-02T04:19:05.650Z,50.902420
2023-02-02T04:20:05.576Z,50.902409
2023-02-02T04:21:05.575Z,50.902428
2023-02-02T04:22:05.564Z,50.902405
2023-02-02T04:23:05.575Z,50.902428
2023-02-02T04:24:05.573Z,50.902420
2023-02-02T04:25:05.617Z,50.902382
2023-02-02T04:26:05.566Z,50.902386
2023-02-02T04:27:05.529Z,50.902393
2023-02-02T04:28:05.520Z,50.902424
2023-02-02T04:29:05.546Z,50.902416
2023-02-02T04:30:05.523Z,50.902409
2023-02-02T04:31:05.623Z,50.902405
2023-02-02T04:32:05.493Z,50.902416
2023-02-02T04:33:05.494Z,50.902393
2023-02-02T04:34:05.517Z,50.902405
2023-02-02T04:35:05.470Z,50.902447
2023-02-02T04:36:05.491Z,50.902409
2023-02-02T04:37:05.470Z,50.902397
2023-02-02T04:38:05.434Z,50.902405
2023-02-02T04:39:05.461Z,50.902416
2023-02-02T04:40:05.447Z,50.902435
2023-02-02T04:41:05.467Z,50.902378
2023-02-02T04:42:05.424Z,50.902390
2023-02-02T04:43:05.426Z,50.902393
2023-02-02T04:44:05.459Z,50.902378
2023-02-02T04:45:05.425Z,50.902405
2023-02-02T04:46:05.432Z,50.902390
2023-02-02T04:47:05.388Z,50.902424
2023-02-02T04:48:05.382Z,50.902363
2023-02-02T04:49:05.382Z,50.902447
2023-02-02T04:50:05.360Z,50.902508
2023-02-02T04:51:05.355Z,50.902485
2023-02-02T04:52:05.331Z,50.902447
2023-02-02T04:53:05.347Z,50.902447
2023-02-02T04:54:05.352Z,50.902424
2023-02-02T04:55:05.313Z,50.902397
2023-02-02T04:56:05.313Z,50.902454
2023-02-02T04:57:05.296Z,50.902443
2023-02-02T05:11:25.422Z,50.902599
2023-02-02T05:12:25.567Z,50.902802
2023-02-02T05:13:25.397Z,50.902561
2023-02-02T05:14:25.418Z,50.902695
2023-02-02T05:15:25.830Z,50.902580
2023-02-02T05:16:28.517Z,50.902405
2023-02-02T05:17:25.370Z,50.902382
2023-02-02T05:18:25.361Z,50.902302
2023-02-02T05:19:25.378Z,50.902393
2023-02-02T05:20:25.348Z,50.902481
2023-02-02T05:21:25.330Z,50.902447
2023-02-02T05:22:25.329Z,50.902431
2023-02-02T05:23:25.316Z,50.902317
2023-02-02T05:24:25.337Z,50.902275
2023-02-02T05:25:25.670Z,50.902168
2023-02-02T05:26:25.390Z,50.902355
2023-02-02T05:27:25.303Z,50.902355
2023-02-02T05:28:25.383Z,50.902355
2023-02-02T05:29:25.319Z,50.902283
2023-02-02T05:30:25.256Z,50.902283
2023-02-02T05:31:25.341Z,50.902397
2023-02-02T05:32:25.244Z,50.902241
2023-02-02T05:33:25.248Z,50.902172
2023-02-02T05:34:25.275Z,50.902260
2023-02-02T05:35:25.574Z,50.902420
2023-02-02T05:36:25.219Z,50.902245
2023-02-02T05:37:25.214Z,50.902172
2023-02-02T05:38:25.207Z,50.902172
2023-02-02T05:39:25.231Z,50.902172
2023-02-02T05:40:25.197Z,50.902172
2023-02-02T05:41:25.180Z,50.902172
2023-02-02T05:42:25.313Z,50.902172
2023-02-02T05:43:25.169Z,50.902172
2023-02-02T05:44:25.191Z,50.902172
2023-02-02T05:45:25.520Z,50.902172
2023-02-02T05:46:25.143Z,50.902172
2023-02-02T05:47:25.135Z,50.901951
2023-02-02T05:48:25.131Z,50.902176
2023-02-02T05:49:25.151Z,50.902336
2023-02-02T05:50:25.116Z,50.902397
2023-02-02T05:51:25.111Z,50.902416
2023-02-02T05:52:25.100Z,50.902439
2023-02-02T05:53:25.089Z,50.902370
2023-02-02T05:54:25.220Z,50.902393
2023-02-02T05:55:25.415Z,50.902374
2023-02-02T05:56:25.075Z,50.902390
2023-02-02T05:57:25.070Z,50.902409
2023-02-02T05:58:25.145Z,50.902409
2023-02-02T05:59:25.074Z,50.902412
2023-02-02T06:00:25.080Z,50.902378
2023-02-02T06:01:25.034Z,50.902401
2023-02-02T06:02:25.036Z,50.902382
2023-02-02T06:03:25.128Z,50.902378
2023-02-02T06:04:25.038Z,50.902405
2023-02-02T06:05:25.401Z,50.902428
2023-02-02T06:06:24.992Z,50.902409
2023-02-02T06:07:24.987Z,50.902386
2023-02-02T06:08:24.982Z,50.902363
2023-02-02T06:09:24.996Z,50.902428
2023-02-02T06:10:24.964Z,50.902466
2023-02-02T06:11:24.973Z,50.902420
2023-02-02T06:12:24.960Z,50.902374
2023-02-02T06:13:24.941Z,50.902401
2023-02-02T06:14:24.966Z,50.902416
2023-02-02T06:15:25.525Z,50.902431
2023-02-02T06:16:24.924Z,50.902435
2023-02-02T06:17:24.944Z,50.902424
2023-02-02T06:18:24.898Z,50.902424
2023-02-02T06:19:24.956Z,50.902443
2023-02-02T06:20:24.893Z,50.902428
2023-02-02T06:21:24.888Z,50.902435
2023-02-02T06:22:24.877Z,50.902431
2023-02-02T06:23:24.925Z,50.902401
2023-02-02T06:24:24.899Z,50.902393
2023-02-02T06:25:25.214Z,50.902405
2023-02-02T06:26:24.939Z,50.902420
2023-02-02T06:27:24.843Z,50.902435
2023-02-02T06:28:24.835Z,50.902420
2023-02-02T06:29:24.870Z,50.902420
2023-02-02T06:30:24.896Z,50.902409
2023-02-02T06:31:25.152Z,50.902412
2023-02-02T06:32:24.809Z,50.902401
2023-02-02T06:33:24.803Z,50.902405
2023-02-02T06:34:24.857Z,50.902409
2023-02-02T06:35:25.252Z,50.902390
2023-02-02T06:36:24.838Z,50.902382
2023-02-02T06:37:24.771Z,50.902390
2023-02-02T06:38:24.768Z,50.902397
2023-02-02T06:39:24.773Z,50.902386
2023-02-02T06:40:24.746Z,50.902405
2023-02-02T06:41:24.736Z,50.902390
2023-02-02T06:42:24.733Z,50.902363
2023-02-02T06:43:24.725Z,50.902363
2023-02-02T06:44:24.753Z,50.902348
2023-02-02T06:45:25.012Z,50.902344
2023-02-02T06:46:24.733Z,50.902363
2023-02-02T06:47:26.827Z,50.902378
2023-02-02T06:48:25.729Z,50.902378
2023-02-02T06:49:24.776Z,50.902386
2023-02-02T06:50:24.671Z,50.902401
2023-02-02T06:51:24.673Z,50.902393
2023-02-02T06:52:24.659Z,50.902374
2023-02-02T06:53:24.660Z,50.902374
2023-02-02T06:54:24.712Z,50.902348
2023-02-02T06:55:25.004Z,50.902340
2023-02-02T06:56:24.615Z,50.902374
2023-02-02T06:57:24.639Z,50.902393
2023-02-02T06:58:24.614Z,50.902435
2023-02-02T06:59:24.792Z,50.902420
2023-02-02T07:00:24.634Z,50.902424
2023-02-02T07:01:24.664Z,50.902386
2023-02-02T07:02:24.620Z,50.902367
2023-02-02T07:03:24.563Z,50.902439
2023-02-02T07:04:24.574Z,50.902405
2023-02-02T07:05:25.121Z,50.902405
2023-02-02T07:06:24.555Z,50.902397
2023-02-02T07:07:24.553Z,50.902397
2023-02-02T07:08:24.552Z,50.902405
2023-02-02T07:09:24.640Z,50.902382
2023-02-02T07:11:12.672Z,50.902405
2023-02-02T07:11:25.539Z,50.902412
2023-02-02T07:12:24.505Z,50.902416
2023-02-02T07:13:24.505Z,50.902435
2023-02-02T07:14:24.499Z,50.902496
2023-02-02T07:15:24.876Z,50.902454
2023-02-02T07:16:24.527Z,50.902420
2023-02-02T07:17:24.491Z,50.902439
2023-02-02T07:18:24.478Z,50.902378
2023-02-02T07:19:24.477Z,50.902340
2023-02-02T07:20:24.485Z,50.902340
2023-02-02T07:21:24.442Z,50.902374
2023-02-02T07:22:24.432Z,50.902412
2023-02-02T07:23:24.429Z,50.902355
2023-02-02T07:24:24.437Z,50.902321
2023-02-02T07:25:24.775Z,50.902386
2023-02-02T07:26:24.478Z,50.902397
2023-02-02T07:27:24.395Z,50.902370
2023-02-02T07:28:24.392Z,50.902344
2023-02-02T07:29:24.491Z,50.902351
2023-02-02T07:30:24.422Z,50.902374
2023-02-02T07:31:24.380Z,50.902397
2023-02-02T07:32:24.366Z,50.902420
2023-02-02T07:33:24.350Z,50.902534
2023-02-02T07:34:24.342Z,50.902531
2023-02-02T07:35:24.654Z,50.902477
2023-02-02T07:36:24.350Z,50.902439
2023-02-02T07:37:24.314Z,50.902401
2023-02-02T07:38:24.311Z,50.902412
2023-02-02T07:39:24.303Z,50.902431
2023-02-02T07:40:24.320Z,50.902416
2023-02-02T07:41:24.289Z,50.902420
2023-02-02T07:42:24.285Z,50.902397
2023-02-02T07:43:24.271Z,50.902428
2023-02-02T07:44:24.264Z,50.902424
2023-02-02T07:45:24.607Z,50.902428
2023-02-02T07:46:24.325Z,50.902454
2023-02-02T07:47:24.239Z,50.902412
2023-02-02T07:48:24.229Z,50.902470
2023-02-02T07:49:24.222Z,50.902466
2023-02-02T07:50:24.240Z,50.902416
2023-02-02T07:51:24.212Z,50.902386
2023-02-02T07:52:24.207Z,50.902409
2023-02-02T07:53:24.211Z,50.902615
2023-02-02T07:54:24.194Z,50.902428
2023-02-02T07:55:24.210Z,50.902405
2023-02-02T07:56:24.181Z,50.902420
2023-02-02T07:57:24.165Z,50.902405
2023-02-02T07:58:24.155Z,50.902439
2023-02-02T07:59:24.160Z,50.902359
2023-02-02T08:00:24.215Z,50.902405
2023-02-02T08:01:24.185Z,50.902409
2023-02-02T08:02:24.125Z,50.902412
2023-02-02T08:03:24.119Z,50.902412
2023-02-02T08:04:24.110Z,50.902443
2023-02-02T08:05:24.527Z,50.902431
2023-02-02T08:06:24.091Z,50.902451
2023-02-02T08:07:24.131Z,50.902458
2023-02-02T08:08:24.087Z,50.902424
2023-02-02T08:09:24.170Z,50.902412
2023-02-02T08:10:24.231Z,50.902412
2023-02-02T08:11:24.080Z,50.902451
2023-02-02T08:12:24.885Z,50.902439
2023-02-02T08:13:25.042Z,50.902428
2023-02-02T08:14:24.031Z,50.902443
2023-02-02T08:15:24.300Z,50.902428
2023-02-02T08:16:24.067Z,50.902431
2023-02-02T08:17:24.015Z,50.902428
2023-02-02T08:18:24.010Z,50.902470
2023-02-02T08:19:23.998Z,50.902454
2023-02-02T08:20:24.017Z,50.902454
2023-02-02T08:21:23.990Z,50.902351
2023-02-02T08:22:24.027Z,50.902412
2023-02-02T08:23:24.013Z,50.902451
2023-02-02T08:24:23.969Z,50.902424
2023-02-02T08:25:24.437Z,50.902386
2023-02-02T08:26:23.983Z,50.902424
2023-02-02T08:27:23.936Z,50.902405
2023-02-02T08:28:23.940Z,50.902378
2023-02-02T08:29:23.926Z,50.902393
2023-02-02T08:30:23.977Z,50.902431
2023-02-02T08:31:23.935Z,50.902473
2023-02-02T08:32:23.909Z,50.902454
2023-02-02T08:33:23.913Z,50.902458
2023-02-02T08:34:23.895Z,50.902412
2023-02-02T08:35:24.194Z,50.902447
2023-02-02T08:36:24.883Z,50.902390
2023-02-02T08:37:23.872Z,50.902435
2023-02-02T08:38:23.881Z,50.902485
2023-02-02T08:39:23.854Z,50.902508
2023-02-02T08:40:24.006Z,50.902466
2023-02-02T08:41:23.856Z,50.902428
2023-02-02T08:42:23.824Z,50.902470
2023-02-02T08:43:23.815Z,50.902412
2023-02-02T08:44:23.811Z,50.902443
2023-02-02T08:46:07.745Z,50.902454
2023-02-02T08:46:24.819Z,50.902462
2023-02-02T08:47:23.799Z,50.902443
2023-02-02T08:48:23.784Z,50.902462
2023-02-02T08:49:23.773Z,50.902454
2023-02-02T08:50:23.784Z,50.902489
2023-02-02T08:51:24.766Z,50.902485
2023-02-02T08:52:25.689Z,50.902435
2023-02-02T08:53:24.730Z,50.902405
2023-02-02T08:54:24.741Z,50.902473
2023-02-02T08:55:24.153Z,50.902496
2023-02-02T08:56:23.727Z,50.902470
2023-02-02T08:57:23.706Z,50.902500
2023-02-02T08:58:23.709Z,50.902462
2023-02-02T08:59:23.706Z,50.902470
2023-02-02T09:00:23.687Z,50.902477
2023-02-02T09:01:23.799Z,50.902489
2023-02-02T09:02:23.724Z,50.902500
2023-02-02T09:03:23.666Z,50.902473
2023-02-02T09:04:23.684Z,50.902470
2023-02-02T09:05:24.187Z,50.902485
2023-02-02T09:06:23.668Z,50.902470
2023-02-02T09:07:23.640Z,50.902458
2023-02-02T09:08:23.655Z,50.902397
2023-02-02T09:09:23.645Z,50.902454
2023-02-02T09:10:23.641Z,50.902504
2023-02-02T09:11:23.633Z,50.902466
2023-02-02T09:12:23.603Z,50.902447
2023-02-02T09:13:23.591Z,50.902451
2023-02-02T09:14:23.591Z,50.902473
2023-02-02T09:15:23.906Z,50.902481
2023-02-02T09:16:23.633Z,50.902447
2023-02-02T09:17:23.556Z,50.902435
2023-02-02T09:18:24.674Z,50.902470
2023-02-02T09:19:23.555Z,50.902515
2023-02-02T09:20:23.544Z,50.902481
2023-02-02T09:21:23.561Z,50.902485
2023-02-02T09:22:23.527Z,50.902458
2023-02-02T09:23:23.521Z,50.902470
2023-02-02T09:24:23.522Z,50.902439
2023-02-02T09:25:23.865Z,50.902435
2023-02-02T09:26:23.581Z,50.902451
2023-02-02T09:27:23.493Z,50.902443
2023-02-02T09:28:23.490Z,50.902466
2023-02-02T09:29:23.485Z,50.902466
2023-02-02T09:30:23.485Z,50.902493
2023-02-02T09:31:23.553Z,50.902493
2023-02-02T09:32:23.449Z,50.902443
2023-02-02T09:33:23.442Z,50.902470
2023-02-02T09:34:23.452Z,50.902447
2023-02-02T09:35:23.824Z,50.902435
2023-02-02T09:36:23.452Z,50.902439
2023-02-02T09:37:23.414Z,50.902458
2023-02-02T09:38:23.406Z,50.902439
2023-02-02T09:39:23.400Z,50.902424
2023-02-02T09:40:23.429Z,50.902477
2023-02-02T09:41:23.409Z,50.902443
2023-02-02T09:42:23.390Z,50.902439
2023-02-02T09:43:23.379Z,50.902435
2023-02-02T09:44:23.359Z,50.902443
2023-02-02T09:45:23.879Z,50.902454
2023-02-02T09:46:25.780Z,50.902447
2023-02-02T09:47:23.346Z,50.902451
2023-02-02T09:48:23.330Z,50.902435
2023-02-02T09:49:23.331Z,50.902504
2023-02-02T09:50:23.318Z,50.902454
2023-02-02T09:51:23.494Z,50.902458
2023-02-02T09:52:23.304Z,50.902458
2023-02-02T09:53:23.296Z,50.902439
2023-02-02T09:54:23.288Z,50.902412
2023-02-02T09:55:23.666Z,50.902435
2023-02-02T09:56:23.303Z,50.902447
2023-02-02T09:57:23.315Z,50.902470
2023-02-02T09:58:23.254Z,50.902424
2023-02-02T09:59:24.581Z,50.902439
2023-02-02T10:00:24.238Z,50.902435
2023-02-02T10:01:23.313Z,50.902485
2023-02-02T10:02:23.238Z,50.902454
2023-02-02T10:03:23.218Z,50.902428
2023-02-02T10:04:23.218Z,50.902420
2023-02-02T10:05:23.622Z,50.902416
2023-02-02T10:06:23.224Z,50.902493
2023-02-02T10:07:23.216Z,50.902447
2023-02-02T10:08:34.428Z,50.902477
2023-02-02T10:09:25.220Z,50.902496
2023-02-02T10:10:23.197Z,50.902470
2023-02-02T10:11:23.169Z,50.902435
2023-02-02T10:12:23.183Z,50.902462
2023-02-02T10:13:23.141Z,50.902416
2023-02-02T10:14:23.187Z,50.902451
2023-02-02T10:15:23.590Z,50.902409
2023-02-02T10:16:23.145Z,50.902428
2023-02-02T10:17:23.308Z,50.902451
2023-02-02T10:18:23.147Z,50.902439
2023-02-02T10:19:23.107Z,50.902458
2023-02-02T10:20:23.334Z,50.902485
2023-02-02T10:21:23.087Z,50.902424
2023-02-02T10:22:23.116Z,50.902420
2023-02-02T10:23:23.078Z,50.902466
2023-02-02T10:24:23.070Z,50.902473
2023-02-02T10:25:23.156Z,50.902431
2023-02-02T10:26:23.167Z,50.902416
2023-02-02T10:27:23.161Z,50.902443
2023-02-02T10:28:23.039Z,50.902397
2023-02-02T10:29:23.039Z,50.902397
2023-02-02T10:30:23.411Z,50.902409
2023-02-02T10:31:23.080Z,50.902416
2023-02-02T10:32:23.215Z,50.902397
2023-02-02T10:33:22.999Z,50.902355
2023-02-02T10:34:23.049Z,50.902363
2023-02-02T10:35:23.085Z,50.902382
2023-02-02T10:36:22.983Z,50.902431
2023-02-02T10:37:23.008Z,50.902405
2023-02-02T10:38:22.975Z,50.902409
2023-02-02T10:39:22.966Z,50.902401
2023-02-02T10:40:23.017Z,50.902397
2023-02-02T10:41:22.951Z,50.902405
2023-02-02T10:42:22.976Z,50.902409
2023-02-02T10:43:22.937Z,50.902397
2023-02-02T10:44:22.926Z,50.902393
2023-02-02T10:45:22.912Z,50.902390
2023-02-02T10:46:23.015Z,50.902393
2023-02-02T10:47:22.914Z,50.902424
2023-02-02T10:48:22.930Z,50.902409
2023-02-02T10:49:22.940Z,50.902390
2023-02-02T10:50:23.225Z,50.902390
2023-02-02T10:51:22.881Z,50.902405
2023-02-02T10:52:22.879Z,50.902393
2023-02-02T10:53:22.895Z,50.902397
2023-02-02T10:54:22.853Z,50.902393
2023-02-02T10:55:22.848Z,50.902382
2023-02-02T10:56:22.834Z,50.902393
2023-02-02T10:57:22.833Z,50.902401
2023-02-02T10:58:56.633Z,50.902386
2023-02-02T10:59:22.887Z,50.902382
2023-02-02T11:00:23.480Z,50.902390
2023-02-02T11:01:23.995Z,50.902409
2023-02-02T11:02:22.841Z,50.902378
2023-02-02T11:03:22.834Z,50.902378
2023-02-02T11:04:22.787Z,50.902363
2023-02-02T11:05:22.799Z,50.902390
2023-02-02T11:06:22.773Z,50.902382
2023-02-02T11:07:22.784Z,50.902370
2023-02-02T11:08:22.807Z,50.902378
2023-02-02T11:09:22.757Z,50.902378
2023-02-02T11:10:22.946Z,50.902390
2023-02-02T11:11:22.748Z,50.902386
2023-02-02T11:12:22.736Z,50.902397
2023-02-02T11:13:22.774Z,50.902424
2023-02-02T11:14:22.727Z,50.902401
2023-02-02T11:15:22.691Z,50.902382
2023-02-02T11:16:22.841Z,50.902420
2023-02-02T11:17:22.708Z,50.902397
2023-02-02T11:18:22.725Z,50.902405
2023-02-02T11:19:22.693Z,50.902390
2023-02-02T11:20:22.829Z,50.902401
2023-02-02T11:21:22.671Z,50.902393
2023-02-02T11:22:22.647Z,50.902359
2023-02-02T11:23:22.685Z,50.902382
2023-02-02T11:24:22.647Z,50.902451
2023-02-02T11:25:22.650Z,50.902454
2023-02-02T11:26:22.638Z,50.902420
2023-02-02T11:27:22.601Z,50.902382
2023-02-02T11:28:22.659Z,50.902390
2023-02-02T11:29:22.589Z,50.902386
2023-02-02T11:30:22.881Z,50.902393
2023-02-02T11:31:22.675Z,50.902382
2023-02-02T11:32:22.576Z,50.902367
2023-02-02T11:33:22.591Z,50.902397
2023-02-02T11:34:22.560Z,50.902397
2023-02-02T11:35:22.550Z,50.902420
2023-02-02T11:36:22.586Z,50.902428
2023-02-02T11:37:22.537Z,50.902416